createdAt,value
2022-12-08T05:24:27.774Z,100260.78
2022-12-08T05:27:30.128Z,100252.19
2022-12-08T05:30:32.171Z,100250.16
2022-12-08T05:33:34.524Z,100251.09
2022-12-08T05:36:36.568Z,100237.63
2022-12-08T05:39:38.936Z,100238.59
2022-12-08T05:42:41.052Z,100227.53
2022-12-08T05:45:43.453Z,100221.66
2022-12-08T05:48:45.682Z,100229.09
2022-12-08T05:51:48.032Z,100229.75
2022-12-08T05:54:50.099Z,100229.03
2022-12-08T05:57:52.420Z,100236.22
2022-12-08T06:00:54.500Z,100242.97
2022-12-08T06:04:01.477Z,100239.09
2022-12-08T06:07:06.159Z,100237.47
2022-12-08T06:10:08.748Z,100235.94
2022-12-08T06:13:11.545Z,100244.03
2022-12-08T06:16:14.029Z,100248.53
2022-12-08T06:19:16.265Z,100252.97
2022-12-08T06:22:18.637Z,100246.72
2022-12-08T06:25:20.796Z,100253.41
2022-12-08T06:28:23.163Z,100247.13
2022-12-08T06:31:26.994Z,100248.06
2022-12-08T06:34:29.365Z,100248.97
2022-12-08T06:37:31.885Z,100256.91
2022-12-08T06:40:34.235Z,100258.91
2022-12-08T06:43:36.411Z,100258.75
2022-12-08T06:46:38.712Z,100264.59
2022-12-08T06:49:41.869Z,100257.09
2022-12-08T06:52:56.891Z,100258.53
2022-12-08T06:56:04.110Z,100256.31
2022-12-08T06:59:06.406Z,100267.72
2022-12-08T07:02:09.626Z,100266.00
2022-12-08T07:05:12.129Z,100263.03
2022-12-08T07:08:14.432Z,100267.97
2022-12-08T07:11:21.463Z,100260.50
2022-12-08T07:14:24.900Z,100266.22
2022-12-08T07:17:27.284Z,100270.56
2022-12-08T07:20:29.454Z,100263.63
2022-12-08T07:23:31.991Z,100259.03
2022-12-08T07:26:34.109Z,100260.91
2022-12-08T07:29:36.485Z,100256.91
2022-12-08T07:32:39.296Z,100253.59
2022-12-08T07:35:46.348Z,100253.06
2022-12-08T07:38:53.195Z,100254.97
2022-12-08T07:41:55.516Z,100251.63
2022-12-08T07:44:57.747Z,100251.16
2022-12-08T07:48:00.245Z,100251.06
2022-12-08T07:51:04.052Z,100254.19
2022-12-08T07:54:06.473Z,100250.03
2022-12-08T07:57:09.796Z,100249.00
2022-12-08T08:00:12.737Z,100246.34
2022-12-08T08:03:15.205Z,100250.00
2022-12-08T08:06:17.415Z,100252.62
2022-12-08T08:09:19.790Z,100245.75
2022-12-08T08:12:31.373Z,100254.13
2022-12-08T08:15:34.856Z,100248.50
2022-12-08T08:18:37.754Z,100247.88
2022-12-08T08:21:47.677Z,100249.09
2022-12-08T08:24:49.811Z,100247.75
2022-12-08T08:27:52.217Z,100236.87
2022-12-08T08:30:54.566Z,100235.38
2022-12-08T08:33:57.247Z,100237.59
2022-12-08T08:36:59.402Z,100229.31
2022-12-08T08:40:02.332Z,100239.41
2022-12-08T08:43:06.456Z,100238.47
2022-12-08T08:46:09.781Z,100234.50
2022-12-08T08:49:11.893Z,100226.63
2022-12-08T08:52:14.326Z,100230.41
2022-12-08T08:55:17.281Z,100225.09
2022-12-08T08:58:19.772Z,100228.97
2022-12-08T09:01:25.068Z,100223.53
2022-12-08T09:04:27.508Z,100209.38
2022-12-08T09:07:29.633Z,100208.28
2022-12-08T09:10:32.193Z,100212.28
2022-12-08T09:13:34.476Z,100219.94
2022-12-08T09:16:42.344Z,100220.59
2022-12-08T09:19:44.843Z,100208.69
2022-12-08T09:22:47.197Z,100195.50
2022-12-08T09:25:49.315Z,100199.44
2022-12-08T09:28:53.516Z,100212.19
2022-12-08T09:31:56.291Z,100207.31
2022-12-08T09:34:58.663Z,100207.56
2022-12-08T09:38:00.730Z,100207.31
2022-12-08T09:41:12.739Z,100207.28
2022-12-08T09:44:17.709Z,100202.13
2022-12-08T09:47:35.351Z,100187.94
2022-12-08T09:50:52.471Z,100168.19
2022-12-08T09:54:03.968Z,100172.44
2022-12-08T09:57:13.119Z,100172.28
2022-12-08T10:00:16.050Z,100165.87
2022-12-08T10:03:20.353Z,100163.53
2022-12-08T10:06:32.063Z,100167.84
2022-12-08T10:13:21.460Z,100170.94
2022-12-08T10:16:38.847Z,100175.81
2022-12-08T10:19:43.044Z,100167.25
2022-12-08T10:22:50.743Z,100174.44
2022-12-08T10:26:00.830Z,100165.16
2022-12-08T10:29:03.248Z,100168.69
2022-12-08T10:32:34.582Z,100166.37
2022-12-08T10:35:48.866Z,100148.06
2022-12-08T10:38:50.940Z,100145.28
2022-12-08T10:41:54.878Z,100134.25
2022-12-08T10:45:29.181Z,100122.09
2022-12-08T10:48:34.655Z,100125.56
2022-12-08T10:51:40.033Z,100119.53
2022-12-08T10:54:42.661Z,100107.44
2022-12-08T10:57:45.198Z,100102.53
2022-12-08T11:00:47.768Z,100096.50
2022-12-08T11:03:51.425Z,100100.53
2022-12-08T11:06:53.817Z,100094.84
2022-12-08T11:09:58.170Z,100085.19
2022-12-08T11:13:03.552Z,100073.84
2022-12-08T11:16:07.608Z,100082.62
2022-12-08T11:19:16.414Z,100063.25
2022-12-08T11:22:39.648Z,100056.75
2022-12-08T11:25:42.036Z,100062.31
2022-12-08T11:28:44.259Z,100051.84
2022-12-08T11:32:07.766Z,100052.12
2022-12-08T11:35:20.680Z,100041.53
2022-12-08T11:38:26.244Z,100021.88
2022-12-08T11:41:38.754Z,100003.28
2022-12-08T11:44:49.237Z,99998.91
2022-12-08T11:48:03.885Z,99998.12
2022-12-08T11:51:29.699Z,100002.22
2022-12-08T11:54:42.931Z,100007.72
2022-12-08T11:57:45.816Z,99999.97
2022-12-08T12:00:50.707Z,100000.22
2022-12-08T12:04:17.227Z,99999.41
2022-12-08T12:07:54.904Z,99997.41
2022-12-08T12:11:05.228Z,99996.97
2022-12-08T12:14:44.905Z,99989.81
2022-12-08T12:17:59.516Z,99998.53
2022-12-08T12:21:13.361Z,100002.44
2022-12-08T12:24:26.089Z,99999.50
2022-12-08T12:27:40.292Z,99999.75
2022-12-08T12:31:15.065Z,100005.94
2022-12-08T12:34:23.271Z,99989.84
2022-12-08T12:37:42.032Z,99994.94
2022-12-08T12:40:44.541Z,100005.31
2022-12-08T12:44:06.906Z,100010.25
2022-12-08T12:47:14.694Z,100003.16
2022-12-08T12:50:49.446Z,99991.81
2022-12-08T12:53:52.081Z,99989.94
2022-12-08T12:56:56.801Z,99969.66
2022-12-08T13:00:01.658Z,99971.47
2022-12-08T13:03:04.161Z,99974.12
2022-12-08T13:06:10.039Z,99972.59
2022-12-08T13:09:29.067Z,99974.22
2022-12-08T13:12:31.160Z,99967.03
2022-12-08T13:15:48.547Z,99958.47
2022-12-08T13:18:56.190Z,99954.91
2022-12-08T13:21:59.123Z,99955.34
2022-12-08T13:25:38.939Z,99948.37
2022-12-08T13:28:59.412Z,99950.03
2022-12-08T13:32:03.040Z,99946.47
2022-12-08T13:35:06.085Z,99951.78
2022-12-08T13:38:08.939Z,99954.69
2022-12-08T13:41:33.195Z,99961.16
2022-12-08T13:48:30.102Z,99966.47
2022-12-08T13:56:30.745Z,99955.72
2022-12-08T13:58:32.546Z,99956.37
2022-12-08T14:01:44.768Z,99950.13
2022-12-08T14:05:17.486Z,99945.69
2022-12-08T14:08:57.477Z,99944.94
2022-12-08T14:12:18.444Z,99951.00
2022-12-08T14:15:21.237Z,99949.16
2022-12-08T14:18:32.901Z,99935.34
2022-12-08T14:21:36.383Z,99942.03
2022-12-08T14:24:39.868Z,99940.31
2022-12-08T14:27:43.212Z,99950.69
2022-12-08T14:30:48.588Z,99956.09
2022-12-08T14:33:56.579Z,99951.56
2022-12-08T14:36:58.979Z,99956.66
2022-12-08T14:40:05.511Z,99958.91
2022-12-08T14:43:08.047Z,99959.31
2022-12-08T14:46:21.620Z,99955.56
2022-12-08T14:49:35.587Z,99957.59
2022-12-08T14:52:44.015Z,99955.84
2022-12-08T14:55:48.280Z,99962.00
2022-12-08T14:59:04.073Z,99956.69
2022-12-08T15:02:15.521Z,99948.00
2022-12-08T15:05:20.714Z,99951.41
2022-12-08T15:08:23.501Z,99953.16
2022-12-08T15:11:34.878Z,99944.44
2022-12-08T15:14:41.128Z,99942.53
2022-12-08T15:18:04.715Z,99939.72
2022-12-08T15:21:09.517Z,99938.03
2022-12-08T15:24:13.472Z,99938.88
2022-12-08T15:27:21.646Z,99940.75
2022-12-08T15:30:26.293Z,99955.53
2022-12-08T15:33:28.658Z,99941.56
2022-12-08T15:36:30.787Z,99928.69
2022-12-08T15:39:36.119Z,99936.44
2022-12-08T15:42:38.177Z,99941.03
2022-12-08T15:46:00.434Z,99938.56
2022-12-08T15:49:03.128Z,99928.69
2022-12-08T15:52:11.867Z,99914.91
2022-12-08T15:55:38.752Z,99917.44
2022-12-08T15:58:58.084Z,99920.91
2022-12-08T16:02:00.651Z,99922.09
2022-12-08T16:05:41.532Z,99926.69
2022-12-08T16:08:45.066Z,99937.81
2022-12-08T16:12:08.952Z,99944.75
2022-12-08T16:18:37.837Z,99934.38
2022-12-08T16:22:17.707Z,99926.47
2022-12-08T16:25:17.629Z,99938.69
2022-12-08T16:28:52.847Z,99922.25
2022-12-08T16:31:43.787Z,99906.81
2022-12-08T16:34:46.023Z,99904.13
2022-12-08T16:37:48.677Z,99899.97
2022-12-08T16:41:09.104Z,99904.25
2022-12-08T16:44:11.397Z,99907.69
2022-12-08T16:47:13.445Z,99911.78
2022-12-08T16:50:18.904Z,99918.81
2022-12-08T16:53:20.958Z,99916.19
